sensor_id;sensor_type;location;lat;lon;timestamp;P1;durP1;ratioP1;P2;durP2;ratioP2
3349;SDS011;1688;51.000;13.684;2023-04-22T00:00:55;7.23;;;5.80;;
3349;SDS011;1688;51.000;13.684;2023-04-22T00:03:30;8.97;;;5.30;;
3349;SDS011;1688;51.000;13.684;2023-04-22T00:06:05;8.53;;;5.20;;
3349;SDS011;1688;51.000;13.684;2023-04-22T00:08:38;6.20;;;4.37;;
3349;SDS011;1688;51.000;13.684;2023-04-22T00:11:11;8.30;;;5.10;;
3349;SDS011;1688;51.000;13.684;2023-04-22T00:13:44;5.43;;;3.97;;
3349;SDS011;1688;51.000;13.684;2023-04-22T00:16:18;8.03;;;5.47;;
3349;SDS011;1688;51.000;13.684;2023-04-22T00:18:52;8.77;;;5.50;;
3349;SDS011;1688;51.000;13.684;2023-04-22T00:21:25;6.70;;;4.47;;
3349;SDS011;1688;51.000;13.684;2023-04-22T00:23:59;12.00;;;4.87;;
3349;SDS011;1688;51.000;13.684;2023-04-22T00:26:32;13.20;;;6.67;;
3349;SDS011;1688;51.000;13.684;2023-04-22T00:29:05;6.40;;;5.33;;
3349;SDS011;1688;51.000;13.684;2023-04-22T00:31:39;8.20;;;5.83;;
3349;SDS011;1688;51.000;13.684;2023-04-22T00:34:12;5.23;;;4.37;;
3349;SDS011;1688;51.000;13.684;2023-04-22T00:36:45;10.13;;;5.60;;
3349;SDS011;1688;51.000;13.684;2023-04-22T00:39:18;9.80;;;4.60;;
3349;SDS011;1688;51.000;13.684;2023-04-22T00:41:52;10.13;;;5.10;;
3349;SDS011;1688;51.000;13.684;2023-04-22T00:44:25;5.10;;;4.43;;
3349;SDS011;1688;51.000;13.684;2023-04-22T00:46:58;7.17;;;5.17;;
3349;SDS011;1688;51.000;13.684;2023-04-22T00:49:32;6.70;;;5.23;;
3349;SDS011;1688;51.000;13.684;2023-04-22T00:52:06;10.50;;;5.87;;
3349;SDS011;1688;51.000;13.684;2023-04-22T00:54:39;6.57;;;5.40;;
3349;SDS011;1688;51.000;13.684;2023-04-22T00:57:13;7.90;;;4.33;;
3349;SDS011;1688;51.000;13.684;2023-04-22T00:59:47;9.43;;;5.40;;
3349;SDS011;1688;51.000;13.684;2023-04-22T01:02:20;9.73;;;4.90;;
3349;SDS011;1688;51.000;13.684;2023-04-22T01:04:54;7.97;;;6.10;;
3349;SDS011;1688;51.000;13.684;2023-04-22T01:07:27;11.33;;;5.00;;
3349;SDS011;1688;51.000;13.684;2023-04-22T01:10:01;6.00;;;5.10;;
3349;SDS011;1688;51.000;13.684;2023-04-22T01:12:34;13.07;;;6.20;;
3349;SDS011;1688;51.000;13.684;2023-04-22T01:15:07;6.87;;;4.50;;
3349;SDS011;1688;51.000;13.684;2023-04-22T01:17:41;9.77;;;4.93;;
3349;SDS011;1688;51.000;13.684;2023-04-22T01:20:14;8.20;;;5.77;;
3349;SDS011;1688;51.000;13.684;2023-04-22T01:22:47;7.13;;;6.13;;
3349;SDS011;1688;51.000;13.684;2023-04-22T01:25:23;7.57;;;5.87;;
3349;SDS011;1688;51.000;13.684;2023-04-22T01:27:56;6.33;;;5.13;;
3349;SDS011;1688;51.000;13.684;2023-04-22T01:30:30;10.47;;;4.70;;
3349;SDS011;1688;51.000;13.684;2023-04-22T01:33:04;7.50;;;5.47;;
3349;SDS011;1688;51.000;13.684;2023-04-22T01:35:38;6.83;;;5.37;;
3349;SDS011;1688;51.000;13.684;2023-04-22T01:38:12;10.30;;;5.57;;
3349;SDS011;1688;51.000;13.684;2023-04-22T01:40:45;6.77;;;5.00;;
3349;SDS011;1688;51.000;13.684;2023-04-22T01:43:18;8.70;;;5.80;;
3349;SDS011;1688;51.000;13.684;2023-04-22T01:45:52;6.73;;;5.10;;
3349;SDS011;1688;51.000;13.684;2023-04-22T01:48:26;5.80;;;4.53;;
3349;SDS011;1688;51.000;13.684;2023-04-22T01:50:59;9.90;;;5.73;;
3349;SDS011;1688;51.000;13.684;2023-04-22T01:53:32;5.70;;;4.90;;
3349;SDS011;1688;51.000;13.684;2023-04-22T01:56:05;11.90;;;5.17;;
3349;SDS011;1688;51.000;13.684;2023-04-22T01:58:39;13.23;;;6.60;;
3349;SDS011;1688;51.000;13.684;2023-04-22T02:01:12;9.87;;;6.00;;
3349;SDS011;1688;51.000;13.684;2023-04-22T02:03:45;7.07;;;6.20;;
3349;SDS011;1688;51.000;13.684;2023-04-22T02:06:19;6.47;;;5.60;;
3349;SDS011;1688;51.000;13.684;2023-04-22T02:08:52;9.60;;;5.40;;
3349;SDS011;1688;51.000;13.684;2023-04-22T02:11:25;7.40;;;6.07;;
3349;SDS011;1688;51.000;13.684;2023-04-22T02:13:58;9.40;;;5.40;;
3349;SDS011;1688;51.000;13.684;2023-04-22T02:16:32;10.63;;;7.20;;
3349;SDS011;1688;51.000;13.684;2023-04-22T02:19:05;22.40;;;6.10;;
3349;SDS011;1688;51.000;13.684;2023-04-22T02:21:38;7.93;;;5.63;;
3349;SDS011;1688;51.000;13.684;2023-04-22T02:24:11;7.03;;;5.83;;
3349;SDS011;1688;51.000;13.684;2023-04-22T02:26:44;9.10;;;7.63;;
3349;SDS011;1688;51.000;13.684;2023-04-22T02:29:18;12.30;;;4.90;;
3349;SDS011;1688;51.000;13.684;2023-04-22T02:31:51;7.17;;;5.30;;
3349;SDS011;1688;51.000;13.684;2023-04-22T02:34:25;12.03;;;5.30;;
3349;SDS011;1688;51.000;13.684;2023-04-22T02:36:58;21.90;;;6.83;;
3349;SDS011;1688;51.000;13.684;2023-04-22T02:39:32;6.13;;;4.40;;
3349;SDS011;1688;51.000;13.684;2023-04-22T02:42:05;9.63;;;5.50;;
3349;SDS011;1688;51.000;13.684;2023-04-22T02:44:38;7.37;;;5.53;;
3349;SDS011;1688;51.000;13.684;2023-04-22T02:47:12;7.13;;;5.33;;
3349;SDS011;1688;51.000;13.684;2023-04-22T02:49:45;7.83;;;5.70;;
3349;SDS011;1688;51.000;13.684;2023-04-22T02:52:18;7.40;;;5.90;;
3349;SDS011;1688;51.000;13.684;2023-04-22T02:54:51;9.40;;;5.20;;
3349;SDS011;1688;51.000;13.684;2023-04-22T02:57:25;19.20;;;9.00;;
3349;SDS011;1688;51.000;13.684;2023-04-22T02:59:58;9.20;;;5.60;;
3349;SDS011;1688;51.000;13.684;2023-04-22T03:02:31;9.33;;;5.13;;
3349;SDS011;1688;51.000;13.684;2023-04-22T03:05:05;17.57;;;5.67;;
3349;SDS011;1688;51.000;13.684;2023-04-22T03:07:38;9.23;;;6.53;;
3349;SDS011;1688;51.000;13.684;2023-04-22T03:10:11;10.70;;;7.10;;
3349;SDS011;1688;51.000;13.684;2023-04-22T03:12:44;7.70;;;4.97;;
3349;SDS011;1688;51.000;13.684;2023-04-22T03:15:18;23.03;;;7.20;;
3349;SDS011;1688;51.000;13.684;2023-04-22T03:17:53;8.83;;;5.30;;
3349;SDS011;1688;51.000;13.684;2023-04-22T03:20:26;9.40;;;5.30;;
3349;SDS011;1688;51.000;13.684;2023-04-22T03:22:59;7.10;;;5.30;;
3349;SDS011;1688;51.000;13.684;2023-04-22T03:25:32;10.70;;;7.40;;
3349;SDS011;1688;51.000;13.684;2023-04-22T03:28:05;14.57;;;5.13;;
3349;SDS011;1688;51.000;13.684;2023-04-22T03:30:39;12.87;;;5.77;;
3349;SDS011;1688;51.000;13.684;2023-04-22T03:33:12;5.83;;;5.20;;
3349;SDS011;1688;51.000;13.684;2023-04-22T03:35:48;8.70;;;6.70;;
3349;SDS011;1688;51.000;13.684;2023-04-22T03:38:22;7.47;;;5.10;;
3349;SDS011;1688;51.000;13.684;2023-04-22T03:40:55;14.27;;;6.37;;
3349;SDS011;1688;51.000;13.684;2023-04-22T03:43:28;9.07;;;6.90;;
3349;SDS011;1688;51.000;13.684;2023-04-22T03:46:02;10.80;;;8.27;;
3349;SDS011;1688;51.000;13.684;2023-04-22T03:48:35;12.30;;;7.00;;
3349;SDS011;1688;51.000;13.684;2023-04-22T03:51:08;9.27;;;5.77;;
3349;SDS011;1688;51.000;13.684;2023-04-22T03:53:42;6.77;;;6.07;;
3349;SDS011;1688;51.000;13.684;2023-04-22T03:56:15;5.90;;;5.30;;
3349;SDS011;1688;51.000;13.684;2023-04-22T03:58:48;5.20;;;4.80;;
3349;SDS011;1688;51.000;13.684;2023-04-22T04:01:21;8.33;;;6.43;;
3349;SDS011;1688;51.000;13.684;2023-04-22T04:03:54;15.00;;;5.20;;
3349;SDS011;1688;51.000;13.684;2023-04-22T04:06:28;6.67;;;5.03;;
3349;SDS011;1688;51.000;13.684;2023-04-22T04:09:03;8.07;;;5.33;;
3349;SDS011;1688;51.000;13.684;2023-04-22T04:11:36;11.80;;;6.23;;
3349;SDS011;1688;51.000;13.684;2023-04-22T04:14:09;8.23;;;7.40;;
3349;SDS011;1688;51.000;13.684;2023-04-22T04:16:43;9.23;;;6.37;;
3349;SDS011;1688;51.000;13.684;2023-04-22T04:19:16;10.40;;;7.07;;
3349;SDS011;1688;51.000;13.684;2023-04-22T04:21:49;12.63;;;7.93;;
3349;SDS011;1688;51.000;13.684;2023-04-22T04:24:23;6.57;;;5.33;;
3349;SDS011;1688;51.000;13.684;2023-04-22T04:26:56;9.73;;;6.80;;
3349;SDS011;1688;51.000;13.684;2023-04-22T04:29:30;7.97;;;6.13;;
3349;SDS011;1688;51.000;13.684;2023-04-22T04:32:03;7.20;;;5.93;;
3349;SDS011;1688;51.000;13.684;2023-04-22T04:34:36;12.37;;;6.03;;
3349;SDS011;1688;51.000;13.684;2023-04-22T04:37:10;10.30;;;5.67;;
3349;SDS011;1688;51.000;13.684;2023-04-22T04:39:43;7.10;;;5.00;;
3349;SDS011;1688;51.000;13.684;2023-04-22T04:42:17;8.33;;;6.57;;
3349;SDS011;1688;51.000;13.684;2023-04-22T04:44:51;8.63;;;7.60;;
3349;SDS011;1688;51.000;13.684;2023-04-22T04:47:24;17.60;;;5.37;;
3349;SDS011;1688;51.000;13.684;2023-04-22T04:49:59;11.37;;;7.03;;
3349;SDS011;1688;51.000;13.684;2023-04-22T04:52:32;7.97;;;5.20;;
3349;SDS011;1688;51.000;13.684;2023-04-22T04:55:05;12.37;;;7.07;;
3349;SDS011;1688;51.000;13.684;2023-04-22T04:57:38;6.27;;;5.53;;
3349;SDS011;1688;51.000;13.684;2023-04-22T05:00:12;15.40;;;6.90;;
3349;SDS011;1688;51.000;13.684;2023-04-22T05:02:45;13.53;;;6.20;;
3349;SDS011;1688;51.000;13.684;2023-04-22T05:05:19;11.00;;;6.40;;
3349;SDS011;1688;51.000;13.684;2023-04-22T05:07:52;8.87;;;5.30;;
3349;SDS011;1688;51.000;13.684;2023-04-22T05:10:25;10.33;;;6.80;;
3349;SDS011;1688;51.000;13.684;2023-04-22T05:12:58;10.30;;;5.70;;
3349;SDS011;1688;51.000;13.684;2023-04-22T05:15:35;8.17;;;5.60;;
3349;SDS011;1688;51.000;13.684;2023-04-22T05:18:08;8.87;;;6.50;;
3349;SDS011;1688;51.000;13.684;2023-04-22T05:20:42;9.93;;;5.37;;
3349;SDS011;1688;51.000;13.684;2023-04-22T05:23:15;12.00;;;5.60;;
3349;SDS011;1688;51.000;13.684;2023-04-22T05:25:48;18.27;;;9.43;;
3349;SDS011;1688;51.000;13.684;2023-04-22T05:28:24;7.80;;;5.63;;
3349;SDS011;1688;51.000;13.684;2023-04-22T05:30:57;7.77;;;5.63;;
3349;SDS011;1688;51.000;13.684;2023-04-22T05:33:31;7.93;;;6.97;;
3349;SDS011;1688;51.000;13.684;2023-04-22T05:36:04;6.03;;;4.93;;
3349;SDS011;1688;51.000;13.684;2023-04-22T05:38:37;13.27;;;6.50;;
3349;SDS011;1688;51.000;13.684;2023-04-22T05:41:10;8.30;;;6.50;;
3349;SDS011;1688;51.000;13.684;2023-04-22T05:43:43;8.40;;;6.63;;
3349;SDS011;1688;51.000;13.684;2023-04-22T05:46:17;6.27;;;4.20;;
3349;SDS011;1688;51.000;13.684;2023-04-22T05:48:51;7.63;;;6.13;;
3349;SDS011;1688;51.000;13.684;2023-04-22T05:51:26;12.50;;;7.27;;
3349;SDS011;1688;51.000;13.684;2023-04-22T05:53:59;15.33;;;8.37;;
3349;SDS011;1688;51.000;13.684;2023-04-22T05:56:32;10.77;;;6.20;;
3349;SDS011;1688;51.000;13.684;2023-04-22T05:59:05;7.10;;;5.90;;
3349;SDS011;1688;51.000;13.684;2023-04-22T06:01:39;7.60;;;5.43;;
3349;SDS011;1688;51.000;13.684;2023-04-22T06:04:12;11.87;;;7.27;;
3349;SDS011;1688;51.000;13.684;2023-04-22T06:06:46;12.03;;;6.77;;
3349;SDS011;1688;51.000;13.684;2023-04-22T06:09:20;11.80;;;7.83;;
3349;SDS011;1688;51.000;13.684;2023-04-22T06:11:53;6.13;;;5.53;;
3349;SDS011;1688;51.000;13.684;2023-04-22T06:14:26;11.93;;;7.23;;
3349;SDS011;1688;51.000;13.684;2023-04-22T06:17:00;10.30;;;7.80;;
3349;SDS011;1688;51.000;13.684;2023-04-22T06:19:33;12.17;;;7.90;;
3349;SDS011;1688;51.000;13.684;2023-04-22T06:22:06;7.73;;;6.97;;
3349;SDS011;1688;51.000;13.684;2023-04-22T06:24:39;11.50;;;6.67;;
3349;SDS011;1688;51.000;13.684;2023-04-22T06:27:13;8.90;;;6.90;;
3349;SDS011;1688;51.000;13.684;2023-04-22T06:29:46;11.20;;;7.40;;
3349;SDS011;1688;51.000;13.684;2023-04-22T06:32:20;7.77;;;4.80;;
3349;SDS011;1688;51.000;13.684;2023-04-22T06:34:53;9.80;;;6.67;;
3349;SDS011;1688;51.000;13.684;2023-04-22T06:37:26;12.13;;;7.30;;
3349;SDS011;1688;51.000;13.684;2023-04-22T06:40:00;9.07;;;6.30;;
3349;SDS011;1688;51.000;13.684;2023-04-22T06:42:34;8.87;;;7.20;;
3349;SDS011;1688;51.000;13.684;2023-04-22T06:45:08;13.47;;;6.23;;
3349;SDS011;1688;51.000;13.684;2023-04-22T06:47:43;10.57;;;7.33;;
3349;SDS011;1688;51.000;13.684;2023-04-22T06:50:17;9.47;;;6.40;;
3349;SDS011;1688;51.000;13.684;2023-04-22T06:52:50;9.73;;;7.57;;
3349;SDS011;1688;51.000;13.684;2023-04-22T06:55:26;10.60;;;8.00;;
3349;SDS011;1688;51.000;13.684;2023-04-22T06:57:59;8.07;;;6.50;;
3349;SDS011;1688;51.000;13.684;2023-04-22T07:00:34;11.87;;;8.37;;
3349;SDS011;1688;51.000;13.684;2023-04-22T07:03:07;13.77;;;8.33;;
3349;SDS011;1688;51.000;13.684;2023-04-22T07:05:41;10.33;;;6.73;;
3349;SDS011;1688;51.000;13.684;2023-04-22T07:08:14;9.63;;;6.57;;
3349;SDS011;1688;51.000;13.684;2023-04-22T07:10:47;10.70;;;7.07;;
3349;SDS011;1688;51.000;13.684;2023-04-22T07:13:21;11.93;;;7.53;;
3349;SDS011;1688;51.000;13.684;2023-04-22T07:15:54;7.83;;;6.07;;
3349;SDS011;1688;51.000;13.684;2023-04-22T07:18:27;9.20;;;7.63;;
3349;SDS011;1688;51.000;13.684;2023-04-22T07:21:01;7.33;;;5.70;;
3349;SDS011;1688;51.000;13.684;2023-04-22T07:23:34;15.67;;;7.40;;
3349;SDS011;1688;51.000;13.684;2023-04-22T07:26:08;7.90;;;6.03;;
3349;SDS011;1688;51.000;13.684;2023-04-22T07:28:41;14.10;;;7.87;;
3349;SDS011;1688;51.000;13.684;2023-04-22T07:31:14;14.10;;;6.50;;
3349;SDS011;1688;51.000;13.684;2023-04-22T07:33:48;12.10;;;7.83;;
3349;SDS011;1688;51.000;13.684;2023-04-22T07:36:23;8.37;;;6.13;;
3349;SDS011;1688;51.000;13.684;2023-04-22T07:38:57;8.80;;;6.77;;
3349;SDS011;1688;51.000;13.684;2023-04-22T07:41:31;7.80;;;6.87;;
3349;SDS011;1688;51.000;13.684;2023-04-22T07:44:04;9.17;;;7.03;;
3349;SDS011;1688;51.000;13.684;2023-04-22T07:46:37;8.90;;;7.00;;
3349;SDS011;1688;51.000;13.684;2023-04-22T07:49:11;6.77;;;5.70;;
3349;SDS011;1688;51.000;13.684;2023-04-22T07:51:45;10.30;;;7.13;;
3349;SDS011;1688;51.000;13.684;2023-04-22T07:54:19;11.60;;;7.17;;
3349;SDS011;1688;51.000;13.684;2023-04-22T07:56:52;19.43;;;6.13;;
3349;SDS011;1688;51.000;13.684;2023-04-22T07:59:26;10.77;;;7.67;;
3349;SDS011;1688;51.000;13.684;2023-04-22T08:01:59;9.43;;;7.03;;
3349;SDS011;1688;51.000;13.684;2023-04-22T08:04:33;10.63;;;5.83;;
3349;SDS011;1688;51.000;13.684;2023-04-22T08:07:06;12.50;;;6.37;;
3349;SDS011;1688;51.000;13.684;2023-04-22T08:09:59;9.03;;;5.57;;
3349;SDS011;1688;51.000;13.684;2023-04-22T08:12:33;6.80;;;6.10;;
3349;SDS011;1688;51.000;13.684;2023-04-22T08:15:06;9.10;;;6.97;;
3349;SDS011;1688;51.000;13.684;2023-04-22T08:17:39;10.17;;;6.50;;
3349;SDS011;1688;51.000;13.684;2023-04-22T08:20:12;8.13;;;6.70;;
3349;SDS011;1688;51.000;13.684;2023-04-22T08:22:46;13.87;;;6.37;;
3349;SDS011;1688;51.000;13.684;2023-04-22T08:25:21;7.30;;;5.47;;
3349;SDS011;1688;51.000;13.684;2023-04-22T08:27:55;6.77;;;5.20;;
3349;SDS011;1688;51.000;13.684;2023-04-22T08:30:28;6.20;;;5.60;;
3349;SDS011;1688;51.000;13.684;2023-04-22T08:33:01;11.43;;;5.10;;
3349;SDS011;1688;51.000;13.684;2023-04-22T08:35:34;6.43;;;5.27;;
3349;SDS011;1688;51.000;13.684;2023-04-22T08:38:08;7.30;;;5.10;;
3349;SDS011;1688;51.000;13.684;2023-04-22T08:40:41;5.67;;;5.00;;
3349;SDS011;1688;51.000;13.684;2023-04-22T08:43:14;5.70;;;5.00;;
3349;SDS011;1688;51.000;13.684;2023-04-22T08:45:48;7.97;;;5.17;;
3349;SDS011;1688;51.000;13.684;2023-04-22T08:48:21;6.40;;;5.00;;
3349;SDS011;1688;51.000;13.684;2023-04-22T08:50:55;12.60;;;4.90;;
3349;SDS011;1688;51.000;13.684;2023-04-22T08:53:29;11.77;;;5.40;;
3349;SDS011;1688;51.000;13.684;2023-04-22T08:56:05;7.63;;;5.70;;
3349;SDS011;1688;51.000;13.684;2023-04-22T08:58:42;7.80;;;4.90;;
3349;SDS011;1688;51.000;13.684;2023-04-22T09:01:15;6.80;;;5.27;;
3349;SDS011;1688;51.000;13.684;2023-04-22T09:03:49;6.03;;;4.50;;
3349;SDS011;1688;51.000;13.684;2023-04-22T09:06:22;6.87;;;5.23;;
3349;SDS011;1688;51.000;13.684;2023-04-22T09:08:56;6.07;;;5.30;;
3349;SDS011;1688;51.000;13.684;2023-04-22T09:11:30;7.90;;;5.40;;
3349;SDS011;1688;51.000;13.684;2023-04-22T09:14:04;6.97;;;4.70;;
3349;SDS011;1688;51.000;13.684;2023-04-22T09:16:45;10.40;;;5.80;;
3349;SDS011;1688;51.000;13.684;2023-04-22T09:19:22;6.43;;;4.13;;
3349;SDS011;1688;51.000;13.684;2023-04-22T09:21:56;6.53;;;4.13;;
3349;SDS011;1688;51.000;13.684;2023-04-22T09:24:30;10.80;;;5.10;;
3349;SDS011;1688;51.000;13.684;2023-04-22T09:27:04;5.13;;;4.10;;
3349;SDS011;1688;51.000;13.684;2023-04-22T09:29:37;6.37;;;4.03;;
3349;SDS011;1688;51.000;13.684;2023-04-22T09:32:11;9.93;;;4.50;;
3349;SDS011;1688;51.000;13.684;2023-04-22T09:34:48;6.77;;;4.37;;
3349;SDS011;1688;51.000;13.684;2023-04-22T09:37:23;6.17;;;4.70;;
3349;SDS011;1688;51.000;13.684;2023-04-22T09:40:04;5.43;;;3.60;;
3349;SDS011;1688;51.000;13.684;2023-04-22T09:42:46;5.90;;;4.57;;
3349;SDS011;1688;51.000;13.684;2023-04-22T09:45:24;6.20;;;4.07;;
3349;SDS011;1688;51.000;13.684;2023-04-22T09:48:00;8.50;;;4.20;;
3349;SDS011;1688;51.000;13.684;2023-04-22T09:50:34;4.70;;;2.93;;
3349;SDS011;1688;51.000;13.684;2023-04-22T09:53:08;4.27;;;3.83;;
3349;SDS011;1688;51.000;13.684;2023-04-22T09:55:43;5.53;;;3.30;;
3349;SDS011;1688;51.000;13.684;2023-04-22T09:58:18;10.80;;;4.40;;
3349;SDS011;1688;51.000;13.684;2023-04-22T10:00:53;8.20;;;4.20;;
3349;SDS011;1688;51.000;13.684;2023-04-22T10:03:27;6.77;;;3.80;;
3349;SDS011;1688;51.000;13.684;2023-04-22T10:06:00;5.07;;;3.60;;
3349;SDS011;1688;51.000;13.684;2023-04-22T10:08:34;6.70;;;4.23;;
3349;SDS011;1688;51.000;13.684;2023-04-22T10:11:08;6.63;;;3.97;;
3349;SDS011;1688;51.000;13.684;2023-04-22T10:13:41;9.67;;;5.13;;
3349;SDS011;1688;51.000;13.684;2023-04-22T10:16:14;4.50;;;4.10;;
3349;SDS011;1688;51.000;13.684;2023-04-22T10:18:48;6.73;;;4.17;;
3349;SDS011;1688;51.000;13.684;2023-04-22T10:21:22;9.17;;;3.70;;
3349;SDS011;1688;51.000;13.684;2023-04-22T10:23:58;12.17;;;4.47;;
3349;SDS011;1688;51.000;13.684;2023-04-22T10:26:42;8.33;;;2.90;;
3349;SDS011;1688;51.000;13.684;2023-04-22T10:29:17;7.03;;;4.20;;
3349;SDS011;1688;51.000;13.684;2023-04-22T10:32:22;5.27;;;4.23;;
3349;SDS011;1688;51.000;13.684;2023-04-22T10:35:09;4.43;;;3.57;;
3349;SDS011;1688;51.000;13.684;2023-04-22T10:37:43;4.70;;;3.07;;
3349;SDS011;1688;51.000;13.684;2023-04-22T10:40:18;4.77;;;3.57;;
3349;SDS011;1688;51.000;13.684;2023-04-22T10:42:57;11.87;;;4.63;;
3349;SDS011;1688;51.000;13.684;2023-04-22T10:45:34;8.10;;;4.43;;
3349;SDS011;1688;51.000;13.684;2023-04-22T10:48:08;5.40;;;3.90;;
3349;SDS011;1688;51.000;13.684;2023-04-22T10:50:41;25.63;;;5.00;;
3349;SDS011;1688;51.000;13.684;2023-04-22T10:56:20;3.20;;;2.63;;
3349;SDS011;1688;51.000;13.684;2023-04-22T10:58:57;4.03;;;3.67;;
3349;SDS011;1688;51.000;13.684;2023-04-22T11:01:32;6.00;;;4.00;;
3349;SDS011;1688;51.000;13.684;2023-04-22T11:04:25;4.70;;;3.70;;
3349;SDS011;1688;51.000;13.684;2023-04-22T11:07:15;7.07;;;4.33;;
3349;SDS011;1688;51.000;13.684;2023-04-22T11:15:16;4.60;;;4.10;;
3349;SDS011;1688;51.000;13.684;2023-04-22T11:17:51;8.77;;;5.00;;
3349;SDS011;1688;51.000;13.684;2023-04-22T11:20:26;7.93;;;4.07;;
3349;SDS011;1688;51.000;13.684;2023-04-22T11:23:01;8.53;;;4.20;;
3349;SDS011;1688;51.000;13.684;2023-04-22T11:25:34;5.17;;;4.10;;
3349;SDS011;1688;51.000;13.684;2023-04-22T11:28:08;8.03;;;5.53;;
3349;SDS011;1688;51.000;13.684;2023-04-22T11:30:42;8.90;;;4.53;;
3349;SDS011;1688;51.000;13.684;2023-04-22T11:33:15;7.63;;;4.57;;
3349;SDS011;1688;51.000;13.684;2023-04-22T11:35:48;6.20;;;4.80;;
3349;SDS011;1688;51.000;13.684;2023-04-22T11:38:22;7.83;;;4.37;;
3349;SDS011;1688;51.000;13.684;2023-04-22T11:40:55;5.90;;;4.47;;
3349;SDS011;1688;51.000;13.684;2023-04-22T11:43:29;8.30;;;4.87;;
3349;SDS011;1688;51.000;13.684;2023-04-22T11:46:02;6.40;;;4.60;;
3349;SDS011;1688;51.000;13.684;2023-04-22T11:48:36;9.53;;;4.47;;
3349;SDS011;1688;51.000;13.684;2023-04-22T11:51:10;8.43;;;5.80;;
3349;SDS011;1688;51.000;13.684;2023-04-22T11:53:50;7.03;;;4.93;;
3349;SDS011;1688;51.000;13.684;2023-04-22T11:56:23;4.87;;;4.37;;
3349;SDS011;1688;51.000;13.684;2023-04-22T11:58:57;8.27;;;5.30;;
3349;SDS011;1688;51.000;13.684;2023-04-22T12:01:30;9.10;;;6.00;;
3349;SDS011;1688;51.000;13.684;2023-04-22T12:04:03;6.27;;;4.90;;
3349;SDS011;1688;51.000;13.684;2023-04-22T12:06:38;5.73;;;5.10;;
3349;SDS011;1688;51.000;13.684;2023-04-22T12:09:12;17.73;;;4.80;;
3349;SDS011;1688;51.000;13.684;2023-04-22T12:11:45;9.60;;;4.63;;
3349;SDS011;1688;51.000;13.684;2023-04-22T12:14:38;5.43;;;4.33;;
3349;SDS011;1688;51.000;13.684;2023-04-22T12:17:11;8.63;;;4.20;;
3349;SDS011;1688;51.000;13.684;2023-04-22T12:19:47;5.17;;;3.83;;
3349;SDS011;1688;51.000;13.684;2023-04-22T12:22:24;5.60;;;4.20;;
3349;SDS011;1688;51.000;13.684;2023-04-22T12:24:58;7.00;;;4.80;;
3349;SDS011;1688;51.000;13.684;2023-04-22T12:27:32;7.20;;;5.20;;
3349;SDS011;1688;51.000;13.684;2023-04-22T12:30:07;5.30;;;4.67;;
3349;SDS011;1688;51.000;13.684;2023-04-22T12:32:40;6.73;;;4.00;;
3349;SDS011;1688;51.000;13.684;2023-04-22T12:35:14;4.67;;;3.63;;
3349;SDS011;1688;51.000;13.684;2023-04-22T12:37:47;4.70;;;3.33;;
3349;SDS011;1688;51.000;13.684;2023-04-22T12:40:23;5.43;;;3.97;;
3349;SDS011;1688;51.000;13.684;2023-04-22T12:42:56;8.90;;;4.23;;
3349;SDS011;1688;51.000;13.684;2023-04-22T12:45:29;6.20;;;4.00;;
3349;SDS011;1688;51.000;13.684;2023-04-22T12:48:03;6.03;;;3.87;;
3349;SDS011;1688;51.000;13.684;2023-04-22T12:50:36;5.17;;;4.67;;
3349;SDS011;1688;51.000;13.684;2023-04-22T12:53:10;5.03;;;3.70;;
3349;SDS011;1688;51.000;13.684;2023-04-22T12:55:43;6.03;;;4.20;;
3349;SDS011;1688;51.000;13.684;2023-04-22T12:58:17;8.90;;;4.97;;
3349;SDS011;1688;51.000;13.684;2023-04-22T13:00:50;15.20;;;4.13;;
3349;SDS011;1688;51.000;13.684;2023-04-22T13:03:23;15.03;;;3.90;;
3349;SDS011;1688;51.000;13.684;2023-04-22T13:05:57;4.90;;;3.73;;
3349;SDS011;1688;51.000;13.684;2023-04-22T13:08:30;5.20;;;3.23;;
3349;SDS011;1688;51.000;13.684;2023-04-22T13:11:04;5.83;;;4.67;;
3349;SDS011;1688;51.000;13.684;2023-04-22T13:13:37;4.97;;;3.40;;
3349;SDS011;1688;51.000;13.684;2023-04-22T13:16:10;6.13;;;3.60;;
3349;SDS011;1688;51.000;13.684;2023-04-22T13:18:44;6.53;;;4.50;;
3349;SDS011;1688;51.000;13.684;2023-04-22T13:21:17;5.93;;;4.43;;
3349;SDS011;1688;51.000;13.684;2023-04-22T13:23:50;4.67;;;3.73;;
3349;SDS011;1688;51.000;13.684;2023-04-22T13:26:24;7.50;;;5.27;;
3349;SDS011;1688;51.000;13.684;2023-04-22T13:29:00;5.00;;;3.50;;
3349;SDS011;1688;51.000;13.684;2023-04-22T13:31:37;7.10;;;3.73;;
3349;SDS011;1688;51.000;13.684;2023-04-22T13:34:10;6.27;;;3.70;;
3349;SDS011;1688;51.000;13.684;2023-04-22T13:36:44;5.53;;;3.50;;
3349;SDS011;1688;51.000;13.684;2023-04-22T13:39:17;4.93;;;3.70;;
3349;SDS011;1688;51.000;13.684;2023-04-22T13:41:51;3.80;;;3.23;;
3349;SDS011;1688;51.000;13.684;2023-04-22T13:44:24;4.17;;;3.17;;
3349;SDS011;1688;51.000;13.684;2023-04-22T13:46:58;4.33;;;3.90;;
3349;SDS011;1688;51.000;13.684;2023-04-22T13:49:34;7.63;;;3.43;;
3349;SDS011;1688;51.000;13.684;2023-04-22T13:52:07;5.83;;;4.27;;
3349;SDS011;1688;51.000;13.684;2023-04-22T13:54:41;9.13;;;5.23;;
3349;SDS011;1688;51.000;13.684;2023-04-22T13:57:14;7.13;;;3.90;;
3349;SDS011;1688;51.000;13.684;2023-04-22T13:59:48;5.53;;;4.03;;
3349;SDS011;1688;51.000;13.684;2023-04-22T14:02:22;6.33;;;3.40;;
3349;SDS011;1688;51.000;13.684;2023-04-22T14:04:55;5.03;;;3.33;;
3349;SDS011;1688;51.000;13.684;2023-04-22T14:07:32;6.20;;;5.23;;
3349;SDS011;1688;51.000;13.684;2023-04-22T14:10:07;4.57;;;4.00;;
3349;SDS011;1688;51.000;13.684;2023-04-22T14:12:50;15.90;;;4.93;;
3349;SDS011;1688;51.000;13.684;2023-04-22T14:15:26;6.07;;;4.27;;
3349;SDS011;1688;51.000;13.684;2023-04-22T14:18:01;5.70;;;4.80;;
3349;SDS011;1688;51.000;13.684;2023-04-22T14:20:37;4.17;;;3.60;;
3349;SDS011;1688;51.000;13.684;2023-04-22T14:23:10;8.30;;;5.43;;
3349;SDS011;1688;51.000;13.684;2023-04-22T14:25:46;9.23;;;4.73;;
3349;SDS011;1688;51.000;13.684;2023-04-22T14:28:19;7.93;;;4.80;;
3349;SDS011;1688;51.000;13.684;2023-04-22T14:30:54;4.63;;;4.00;;
3349;SDS011;1688;51.000;13.684;2023-04-22T14:33:27;8.00;;;3.80;;
3349;SDS011;1688;51.000;13.684;2023-04-22T14:36:04;5.50;;;4.20;;
3349;SDS011;1688;51.000;13.684;2023-04-22T14:38:40;7.77;;;4.47;;
3349;SDS011;1688;51.000;13.684;2023-04-22T14:41:13;7.30;;;5.00;;
3349;SDS011;1688;51.000;13.684;2023-04-22T14:43:48;6.50;;;3.80;;
3349;SDS011;1688;51.000;13.684;2023-04-22T14:46:24;5.80;;;4.33;;
3349;SDS011;1688;51.000;13.684;2023-04-22T14:48:58;5.90;;;4.50;;
3349;SDS011;1688;51.000;13.684;2023-04-22T14:51:32;5.63;;;4.00;;
3349;SDS011;1688;51.000;13.684;2023-04-22T14:54:06;7.00;;;5.80;;
3349;SDS011;1688;51.000;13.684;2023-04-22T14:56:41;6.80;;;5.20;;
3349;SDS011;1688;51.000;13.684;2023-04-22T14:59:14;5.23;;;4.37;;
3349;SDS011;1688;51.000;13.684;2023-04-22T15:01:48;9.10;;;4.50;;
3349;SDS011;1688;51.000;13.684;2023-04-22T15:04:22;5.70;;;4.50;;
3349;SDS011;1688;51.000;13.684;2023-04-22T15:06:55;6.17;;;5.57;;
3349;SDS011;1688;51.000;13.684;2023-04-22T15:09:29;7.97;;;4.80;;
3349;SDS011;1688;51.000;13.684;2023-04-22T15:12:03;10.23;;;4.53;;
3349;SDS011;1688;51.000;13.684;2023-04-22T15:14:36;5.57;;;4.53;;
3349;SDS011;1688;51.000;13.684;2023-04-22T15:17:10;7.30;;;4.80;;
3349;SDS011;1688;51.000;13.684;2023-04-22T15:19:44;8.07;;;4.50;;
3349;SDS011;1688;51.000;13.684;2023-04-22T15:22:17;5.93;;;3.70;;
3349;SDS011;1688;51.000;13.684;2023-04-22T15:24:50;9.00;;;4.30;;
3349;SDS011;1688;51.000;13.684;2023-04-22T15:27:24;8.30;;;5.70;;
3349;SDS011;1688;51.000;13.684;2023-04-22T15:29:58;7.57;;;5.20;;
3349;SDS011;1688;51.000;13.684;2023-04-22T15:32:31;7.23;;;4.40;;
3349;SDS011;1688;51.000;13.684;2023-04-22T15:35:05;6.00;;;4.73;;
3349;SDS011;1688;51.000;13.684;2023-04-22T15:37:39;11.13;;;5.00;;
3349;SDS011;1688;51.000;13.684;2023-04-22T15:40:12;11.47;;;5.23;;
3349;SDS011;1688;51.000;13.684;2023-04-22T15:42:45;8.47;;;4.87;;
3349;SDS011;1688;51.000;13.684;2023-04-22T15:45:18;9.00;;;5.40;;
3349;SDS011;1688;51.000;13.684;2023-04-22T15:47:52;7.87;;;4.97;;